createdAt,value
2019-06-07T00:00:48.179Z,13.40
2019-06-07T00:03:27.415Z,14.63
2019-06-07T00:05:46.455Z,14.23
2019-06-07T00:08:26.662Z,14.10
2019-06-07T00:10:48.033Z,14.47
2019-06-07T00:13:18.764Z,16.10
2019-06-07T00:15:46.063Z,15.13
2019-06-07T00:18:19.406Z,20.23
2019-06-07T00:20:44.205Z,18.57
2019-06-07T00:23:14.940Z,25.83
2019-06-07T00:25:42.308Z,21.10
2019-06-07T00:28:10.654Z,21.13
2019-06-07T00:30:50.675Z,23.17
2019-06-07T00:33:12.976Z,25.47
2019-06-07T00:35:39.202Z,19.80
2019-06-07T00:38:07.570Z,21.87
2019-06-07T00:40:35.740Z,19.30
2019-06-07T00:43:04.140Z,19.43
2019-06-07T00:45:32.431Z,22.00
2019-06-07T00:48:00.533Z,21.97
2019-06-07T00:50:28.749Z,21.67
2019-06-07T00:53:14.416Z,20.80
2019-06-07T00:55:27.634Z,18.13
2019-06-07T00:57:56.340Z,21.53
2019-06-07T01:00:25.529Z,20.50
2019-06-07T01:02:54.298Z,21.40
2019-06-07T01:05:30.454Z,22.30
2019-06-07T01:07:52.451Z,18.00
2019-06-07T01:10:46.047Z,16.40
2019-06-07T01:12:50.808Z,19.53
2019-06-07T01:15:28.530Z,18.97
2019-06-07T01:18:33.091Z,19.70
2019-06-07T01:20:24.842Z,19.20
2019-06-07T01:22:53.027Z,17.50
2019-06-07T01:25:23.872Z,18.27
2019-06-07T01:27:51.929Z,18.23
2019-06-07T01:30:24.128Z,16.53
2019-06-07T01:32:50.453Z,17.87
2019-06-07T01:35:20.262Z,16.73
2019-06-07T01:37:48.548Z,17.30
2019-06-07T01:40:20.801Z,16.67
2019-06-07T01:42:48.339Z,19.02
2019-06-07T01:45:18.370Z,17.27
2019-06-07T01:47:47.013Z,19.80
2019-06-07T01:50:16.874Z,21.60
2019-06-07T01:52:45.271Z,19.80
2019-06-07T01:55:13.481Z,19.37
2019-06-07T01:57:47.981Z,18.70
2019-06-07T02:00:12.095Z,18.40
2019-06-07T02:02:40.409Z,18.50
2019-06-07T02:05:09.566Z,16.90
2019-06-07T02:07:37.881Z,21.57
2019-06-07T02:10:06.536Z,17.37
2019-06-07T02:12:42.891Z,19.00
2019-06-07T02:15:05.425Z,22.13
2019-06-07T02:17:33.526Z,20.67
2019-06-07T02:20:01.822Z,15.43
2019-06-07T02:22:32.615Z,15.10
2019-06-07T02:27:32.791Z,23.83
2019-06-07T02:30:35.118Z,21.40
2019-06-07T02:32:34.668Z,23.90
2019-06-07T02:35:01.321Z,22.63
2019-06-07T02:37:33.611Z,21.90
2019-06-07T02:39:59.484Z,22.03
2019-06-07T02:42:30.803Z,21.63
2019-06-07T02:44:57.602Z,24.40
2019-06-07T02:47:27.979Z,22.47
2019-06-07T02:49:55.738Z,24.83
2019-06-07T02:52:27.248Z,24.60
2019-06-07T02:54:55.131Z,24.27
2019-06-07T02:57:25.725Z,21.80
2019-06-07T03:00:07.087Z,25.57
2019-06-07T03:02:25.546Z,25.47
2019-06-07T03:04:53.278Z,35.73
2019-06-07T03:07:21.967Z,36.07
2019-06-07T03:09:50.353Z,45.00
2019-06-07T03:12:19.365Z,37.87
2019-06-07T03:14:47.526Z,34.63
2019-06-07T03:17:38.930Z,30.33
2019-06-07T03:20:09.587Z,23.52
2019-06-07T03:22:41.520Z,20.90
2019-06-07T03:25:11.672Z,22.37
2019-06-07T03:27:48.861Z,16.87
2019-06-07T03:30:36.098Z,21.27
2019-06-07T03:32:47.544Z,17.77
2019-06-07T03:35:10.166Z,18.87
2019-06-07T03:37:42.332Z,22.73
2019-06-07T03:40:08.313Z,14.43
2019-06-07T03:42:38.791Z,13.70
2019-06-07T03:45:06.686Z,14.67
2019-06-07T03:47:36.506Z,16.67
2019-06-07T03:50:04.946Z,19.37
2019-06-07T03:52:35.550Z,15.03
2019-06-07T03:55:03.373Z,16.27
2019-06-07T03:58:23.816Z,13.33
2019-06-07T04:00:01.528Z,16.97
2019-06-07T04:02:30.375Z,13.50
2019-06-07T04:04:59.558Z,14.03
2019-06-07T04:07:28.995Z,12.00
2019-06-07T04:09:57.711Z,12.82
2019-06-07T04:12:25.910Z,13.30
2019-06-07T04:14:54.013Z,13.07
2019-06-07T04:17:22.369Z,14.13
2019-06-07T04:19:51.605Z,11.00
2019-06-07T04:22:19.883Z,22.37
2019-06-07T04:24:48.017Z,12.77
2019-06-07T04:27:16.281Z,11.87
2019-06-07T04:30:05.250Z,13.20
2019-06-07T04:32:14.546Z,10.30
2019-06-07T04:34:43.335Z,14.27
2019-06-07T04:37:11.951Z,9.00
2019-06-07T04:39:44.656Z,11.67
2019-06-07T04:42:12.265Z,9.47
2019-06-07T04:44:42.740Z,8.40
2019-06-07T04:47:11.539Z,8.67
2019-06-07T04:49:44.358Z,10.87
2019-06-07T04:52:12.983Z,10.37
2019-06-07T04:54:45.730Z,8.20
2019-06-07T04:57:11.137Z,10.70
2019-06-07T05:00:10.438Z,9.70
2019-06-07T05:02:09.416Z,9.87
2019-06-07T05:04:39.780Z,9.77
2019-06-07T05:07:07.569Z,7.72
2019-06-07T05:09:38.937Z,10.98
2019-06-07T05:12:05.840Z,7.28
2019-06-07T05:14:34.565Z,7.03
2019-06-07T05:17:03.475Z,4.28
2019-06-07T05:19:35.206Z,6.23
2019-06-07T05:22:04.895Z,7.53
2019-06-07T05:24:35.572Z,8.38
2019-06-07T05:27:01.782Z,7.58
2019-06-07T05:29:30.785Z,6.25
2019-06-07T05:31:59.231Z,5.25
2019-06-07T05:34:27.346Z,4.42
2019-06-07T05:37:11.166Z,5.87
2019-06-07T05:39:25.538Z,2.77
2019-06-07T05:41:53.672Z,4.12
2019-06-07T05:44:21.859Z,3.47
2019-06-07T05:46:50.110Z,3.70
2019-06-07T05:49:18.346Z,2.45
2019-06-07T05:51:46.630Z,3.65
2019-06-07T05:54:14.747Z,4.37
2019-06-07T05:56:45.217Z,3.47
2019-06-07T05:59:13.079Z,3.75
2019-06-07T06:01:52.304Z,3.30
2019-06-07T06:04:11.262Z,3.75
2019-06-07T06:06:43.194Z,3.22
2019-06-07T06:09:13.799Z,4.33
2019-06-07T06:11:54.881Z,2.87
2019-06-07T06:14:11.254Z,4.83
2019-06-07T06:16:40.407Z,5.22
2019-06-07T06:19:09.464Z,3.77
2019-06-07T06:21:38.516Z,3.87
2019-06-07T06:24:09.747Z,4.17
2019-06-07T06:26:45.463Z,1.82
2019-06-07T06:29:09.690Z,2.12
2019-06-07T06:31:41.153Z,3.80
2019-06-07T06:34:08.610Z,3.55
2019-06-07T06:36:37.353Z,2.67
2019-06-07T06:39:06.191Z,4.62
2019-06-07T06:41:46.126Z,4.50
2019-06-07T06:44:04.642Z,5.50
2019-06-07T06:46:41.038Z,2.62
2019-06-07T06:49:03.926Z,5.83
2019-06-07T06:51:32.173Z,2.12
2019-06-07T06:54:00.689Z,3.98
2019-06-07T06:56:29.018Z,5.78
2019-06-07T06:59:35.215Z,4.92
2019-06-07T07:01:27.233Z,7.30
2019-06-07T07:04:11.043Z,5.08
2019-06-07T07:06:27.073Z,8.10
2019-06-07T07:08:56.465Z,7.30
2019-06-07T07:11:24.716Z,3.72
2019-06-07T07:13:56.198Z,2.85
2019-06-07T07:16:23.135Z,3.45
2019-06-07T07:18:54.565Z,10.65
2019-06-07T07:21:22.404Z,6.53
2019-06-07T07:24:15.152Z,7.97
2019-06-07T07:26:20.486Z,6.15
2019-06-07T07:28:51.776Z,6.42
2019-06-07T07:31:18.755Z,7.12
2019-06-07T07:36:35.665Z,4.70
2019-06-07T07:38:51.715Z,6.72
2019-06-07T07:41:17.666Z,7.60
2019-06-07T07:43:54.454Z,12.73
2019-06-07T07:46:29.275Z,7.62
2019-06-07T07:48:48.556Z,6.55
2019-06-07T07:51:17.080Z,6.97
2019-06-07T07:53:53.217Z,7.42
2019-06-07T07:56:16.285Z,7.97
2019-06-07T07:58:48.602Z,4.60
2019-06-07T08:01:15.046Z,7.10
2019-06-07T08:03:45.975Z,6.10
2019-06-07T08:06:14.526Z,5.60
2019-06-07T08:08:42.952Z,9.85
2019-06-07T08:11:12.950Z,6.83
2019-06-07T08:13:41.745Z,7.00
2019-06-07T08:16:16.178Z,10.98
2019-06-07T08:18:39.993Z,8.30
2019-06-07T08:21:23.232Z,11.03
2019-06-07T08:23:38.277Z,7.90
2019-06-07T08:26:06.691Z,8.23
2019-06-07T08:28:35.528Z,7.78
2019-06-07T08:31:07.181Z,10.03
2019-06-07T08:33:34.545Z,10.65
2019-06-07T08:36:11.882Z,10.40
2019-06-07T08:38:47.498Z,9.18
2019-06-07T08:41:11.855Z,10.05
2019-06-07T08:43:36.509Z,8.08
2019-06-07T08:46:07.775Z,10.15
2019-06-07T08:48:34.738Z,7.45
2019-06-07T08:51:08.324Z,5.42
2019-06-07T08:53:33.164Z,8.88
2019-06-07T08:56:09.116Z,10.68
2019-06-07T08:58:31.708Z,6.08
2019-06-07T09:01:06.411Z,5.78
2019-06-07T09:03:31.392Z,6.55
2019-06-07T09:06:06.450Z,4.90
2019-06-07T09:08:30.949Z,13.38
2019-06-07T09:11:05.272Z,5.33
2019-06-07T09:13:29.704Z,5.28
2019-06-07T09:16:03.595Z,5.30
2019-06-07T09:18:41.956Z,7.83
2019-06-07T09:21:00.449Z,5.20
2019-06-07T09:23:28.111Z,4.65
2019-06-07T09:26:05.228Z,3.25
2019-06-07T09:28:26.898Z,4.70
2019-06-07T09:30:57.111Z,5.83
2019-06-07T09:33:25.244Z,3.52
2019-06-07T09:35:53.458Z,4.53
2019-06-07T09:38:26.484Z,5.35
2019-06-07T09:40:51.745Z,7.42
2019-06-07T09:44:00.074Z,5.53
2019-06-07T09:45:49.917Z,5.05
2019-06-07T09:49:08.404Z,3.05
2019-06-07T09:50:49.502Z,7.40
2019-06-07T09:53:22.393Z,9.53
2019-06-07T09:55:47.541Z,4.45
2019-06-07T09:58:50.493Z,5.33
2019-06-07T10:00:47.817Z,4.00
2019-06-07T10:03:21.405Z,6.87
2019-06-07T10:05:46.210Z,5.22
2019-06-07T10:09:01.110Z,7.87
2019-06-07T10:10:48.999Z,3.60
2019-06-07T10:13:17.690Z,5.42
2019-06-07T10:15:45.909Z,2.72
2019-06-07T10:18:14.200Z,4.67
2019-06-07T10:20:43.217Z,6.37
2019-06-07T10:23:12.893Z,5.37
2019-06-07T10:25:41.053Z,5.47
2019-06-07T10:28:10.245Z,4.40
2019-06-07T10:30:38.662Z,6.42
2019-06-07T10:33:07.063Z,3.92
2019-06-07T10:35:35.839Z,3.27
2019-06-07T10:38:04.570Z,3.40
2019-06-07T10:40:33.043Z,6.40
2019-06-07T10:43:03.049Z,4.83
2019-06-07T10:45:31.318Z,3.77
2019-06-07T10:47:59.491Z,4.33
2019-06-07T10:50:29.113Z,7.70
2019-06-07T10:52:57.227Z,6.10
2019-06-07T10:55:25.444Z,4.05
2019-06-07T10:57:53.636Z,5.33
2019-06-07T11:00:21.902Z,4.65
2019-06-07T11:02:50.123Z,5.08
2019-06-07T11:05:18.399Z,2.98
2019-06-07T11:07:46.576Z,4.30
2019-06-07T11:10:18.979Z,4.92
2019-06-07T11:12:45.007Z,4.60
2019-06-07T11:15:15.012Z,7.20
2019-06-07T11:17:43.578Z,3.33
2019-06-07T11:20:12.432Z,7.75
2019-06-07T11:22:40.920Z,6.40
2019-06-07T11:25:09.758Z,6.72
2019-06-07T11:27:39.214Z,3.12
2019-06-07T11:30:08.378Z,3.20
2019-06-07T11:32:40.038Z,3.58
2019-06-07T11:35:11.680Z,7.78
2019-06-07T11:37:40.077Z,3.70
2019-06-07T11:40:28.909Z,7.12
2019-06-07T11:42:38.568Z,5.25
2019-06-07T11:45:08.176Z,3.35
2019-06-07T11:47:37.971Z,4.58
2019-06-07T11:50:07.251Z,3.87
2019-06-07T11:52:39.129Z,5.40
2019-06-07T11:55:11.526Z,5.15
2019-06-07T11:57:42.074Z,7.95
2019-06-07T12:00:14.027Z,5.83
2019-06-07T12:02:43.266Z,5.70
2019-06-07T12:05:15.312Z,4.80
2019-06-07T12:07:43.259Z,5.53
2019-06-07T12:10:15.524Z,4.03
2019-06-07T12:12:47.149Z,5.87
2019-06-07T12:15:19.327Z,7.92
2019-06-07T12:17:48.871Z,6.03
2019-06-07T12:20:20.882Z,7.25
2019-06-07T12:22:54.888Z,6.72
2019-06-07T12:25:25.463Z,6.28
2019-06-07T12:27:53.733Z,4.15
2019-06-07T12:30:27.739Z,6.47
2019-06-07T12:32:53.075Z,4.90
2019-06-07T12:35:21.866Z,8.90
2019-06-07T12:37:50.290Z,4.70
2019-06-07T12:40:27.616Z,3.67
2019-06-07T12:42:50.226Z,5.97
2019-06-07T12:45:40.102Z,4.20
2019-06-07T12:47:49.074Z,5.05
2019-06-07T12:50:17.512Z,3.98
2019-06-07T12:52:45.874Z,4.67
2019-06-07T12:55:18.083Z,6.08
2019-06-07T12:57:46.202Z,7.35
2019-06-07T13:00:14.433Z,3.72
2019-06-07T13:02:42.571Z,2.55
2019-06-07T13:05:11.303Z,9.03
2019-06-07T13:07:39.531Z,6.05
2019-06-07T13:10:08.622Z,5.72
2019-06-07T13:12:38.695Z,4.37
2019-06-07T13:15:07.878Z,7.97
2019-06-07T13:17:37.102Z,3.27
2019-06-07T13:20:05.510Z,6.67
2019-06-07T13:22:33.614Z,3.72
2019-06-07T13:25:02.320Z,4.47
2019-06-07T13:27:33.383Z,3.62
2019-06-07T13:30:09.932Z,5.28
2019-06-07T13:32:34.348Z,5.37
2019-06-07T13:35:02.538Z,3.50
2019-06-07T13:37:30.916Z,5.03
2019-06-07T13:39:59.234Z,5.75
2019-06-07T13:42:28.604Z,3.87
2019-06-07T13:44:57.095Z,6.80
2019-06-07T13:47:25.417Z,4.90
2019-06-07T13:49:55.323Z,3.85
2019-06-07T13:52:23.721Z,6.28
2019-06-07T13:54:52.078Z,8.23
2019-06-07T13:57:22.550Z,4.05
2019-06-07T13:59:52.469Z,9.88
2019-06-07T14:02:21.071Z,11.12
2019-06-07T14:04:49.526Z,3.02
2019-06-07T14:07:19.044Z,7.05
2019-06-07T14:09:50.907Z,5.12
2019-06-07T14:12:22.217Z,7.08
2019-06-07T14:14:51.334Z,4.55
2019-06-07T14:17:21.082Z,6.97
2019-06-07T14:19:49.836Z,5.35
2019-06-07T14:22:20.873Z,2.85
2019-06-07T14:24:48.984Z,4.67
2019-06-07T14:27:17.267Z,6.53
2019-06-07T14:29:45.550Z,5.10
2019-06-07T14:32:13.802Z,4.10
2019-06-07T14:34:41.945Z,4.30
2019-06-07T14:37:10.223Z,3.85
2019-06-07T14:39:39.570Z,8.43
2019-06-07T14:42:10.013Z,5.90
2019-06-07T14:44:37.701Z,5.70
2019-06-07T14:47:06.006Z,5.45
2019-06-07T14:49:34.770Z,7.35
2019-06-07T14:52:08.023Z,4.95
2019-06-07T14:54:39.104Z,6.78
2019-06-07T14:57:07.326Z,9.05
2019-06-07T14:59:35.911Z,4.55
2019-06-07T15:02:05.577Z,8.40
2019-06-07T15:04:34.789Z,6.42
2019-06-07T15:07:03.051Z,3.00
2019-06-07T15:09:31.211Z,10.03
2019-06-07T15:11:59.521Z,5.62
2019-06-07T15:14:29.172Z,3.83
2019-06-07T15:16:59.011Z,5.22
2019-06-07T15:19:28.708Z,9.35
2019-06-07T15:21:57.221Z,4.80
2019-06-07T15:24:25.441Z,5.83
2019-06-07T15:26:54.002Z,6.45
2019-06-07T15:29:22.637Z,4.53
2019-06-07T15:31:50.965Z,5.50
2019-06-07T15:34:19.254Z,6.12
2019-06-07T15:36:48.355Z,9.25
2019-06-07T15:39:16.617Z,4.78
2019-06-07T15:41:44.738Z,6.08
2019-06-07T15:44:13.123Z,6.30
2019-06-07T15:46:41.474Z,9.05
2019-06-07T15:49:10.526Z,8.33
2019-06-07T15:51:40.827Z,9.53
2019-06-07T15:54:09.400Z,11.68
2019-06-07T15:56:41.081Z,6.30
2019-06-07T15:59:10.359Z,5.62
2019-06-07T16:01:39.563Z,7.85
2019-06-07T16:04:07.948Z,5.65
2019-06-07T16:06:36.281Z,6.22
2019-06-07T16:09:06.079Z,6.55
2019-06-07T16:11:37.041Z,11.57
2019-06-07T16:14:06.435Z,6.53
2019-06-07T16:16:37.049Z,8.88
2019-06-07T16:19:05.939Z,6.35
2019-06-07T16:21:41.392Z,6.80
2019-06-07T16:24:10.055Z,10.00
2019-06-07T16:26:40.122Z,7.30
2019-06-07T16:29:08.846Z,7.22
2019-06-07T16:31:37.018Z,8.20
2019-06-07T16:34:05.295Z,5.62
2019-06-07T16:36:33.550Z,6.70
2019-06-07T16:39:05.022Z,8.75
2019-06-07T16:41:33.833Z,6.70
2019-06-07T16:44:02.778Z,8.03
2019-06-07T16:46:31.409Z,7.22
2019-06-07T16:48:59.641Z,7.47
2019-06-07T16:51:28.125Z,10.48
2019-06-07T16:53:56.343Z,10.23
2019-06-07T16:56:25.995Z,5.70
2019-06-07T16:58:54.250Z,6.80
2019-06-07T17:01:23.062Z,8.23
2019-06-07T17:03:52.639Z,6.05
2019-06-07T17:06:20.805Z,8.73
2019-06-07T17:08:48.973Z,4.30
2019-06-07T17:11:17.294Z,7.30
2019-06-07T17:13:46.483Z,7.65
2019-06-07T17:16:15.394Z,6.70
2019-06-07T17:18:45.079Z,5.75
2019-06-07T17:21:14.394Z,7.17
2019-06-07T17:23:43.901Z,6.35
2019-06-07T17:26:12.834Z,6.47
2019-06-07T17:28:41.795Z,12.40
2019-06-07T17:31:10.673Z,7.70
2019-06-07T17:33:39.801Z,6.92
2019-06-07T17:36:08.658Z,7.75
2019-06-07T17:38:37.357Z,4.78
2019-06-07T17:41:05.631Z,6.97
2019-06-07T17:43:48.466Z,7.25
2019-06-07T17:46:06.929Z,10.53
2019-06-07T17:48:35.798Z,10.00
2019-06-07T17:51:04.534Z,7.72
2019-06-07T17:53:33.296Z,8.40
2019-06-07T17:56:01.526Z,8.90
2019-06-07T17:58:30.379Z,11.85
2019-06-07T18:00:59.222Z,9.63
2019-06-07T18:03:28.505Z,11.43
2019-06-07T18:05:57.374Z,11.33
2019-06-07T18:08:28.166Z,14.75
2019-06-07T18:10:56.623Z,10.08
2019-06-07T18:13:25.358Z,11.57
2019-06-07T18:15:59.046Z,11.57
2019-06-07T18:18:24.175Z,10.32
2019-06-07T18:20:53.478Z,8.38
2019-06-07T18:23:22.464Z,14.13
2019-06-07T18:25:52.568Z,9.95
2019-06-07T18:28:21.775Z,11.33
2019-06-07T18:30:50.800Z,9.20
2019-06-07T18:33:20.114Z,8.43
2019-06-07T18:35:49.015Z,7.97
2019-06-07T18:38:17.359Z,13.43
2019-06-07T18:40:59.610Z,8.13
2019-06-07T18:43:33.208Z,7.60
2019-06-07T18:46:01.632Z,9.38
2019-06-07T18:48:29.910Z,10.70
2019-06-07T18:50:59.165Z,14.33
2019-06-07T18:53:27.882Z,6.12
2019-06-07T18:55:56.247Z,9.70
2019-06-07T18:58:24.553Z,10.85
2019-06-07T19:00:53.801Z,9.05
2019-06-07T19:03:22.263Z,11.68
2019-06-07T19:05:50.443Z,12.98
2019-06-07T19:08:18.708Z,16.55
2019-06-07T19:10:46.797Z,12.30
2019-06-07T19:13:15.066Z,13.50
2019-06-07T19:15:43.550Z,11.03
2019-06-07T19:18:11.927Z,11.33
2019-06-07T19:20:40.162Z,12.10
2019-06-07T19:23:08.435Z,16.52
2019-06-07T19:25:36.697Z,9.95
2019-06-07T19:28:04.824Z,16.75
2019-06-07T19:30:33.250Z,9.28
2019-06-07T19:33:01.591Z,15.58
2019-06-07T19:35:29.974Z,14.00
2019-06-07T19:37:58.217Z,9.75
2019-06-07T19:40:26.458Z,10.70
2019-06-07T19:42:56.273Z,16.57
2019-06-07T19:45:30.438Z,15.58
2019-06-07T19:47:56.429Z,15.03
2019-06-07T19:50:25.445Z,17.37
2019-06-07T19:52:54.982Z,13.62
2019-06-07T19:55:23.456Z,15.13
2019-06-07T19:57:53.252Z,13.53
2019-06-07T20:00:22.160Z,21.50
2019-06-07T20:02:50.547Z,12.98
2019-06-07T20:05:20.349Z,16.97
2019-06-07T20:07:51.402Z,16.00
2019-06-07T20:10:19.600Z,21.75
2019-06-07T20:12:47.953Z,19.97
2019-06-07T20:15:28.292Z,13.00
2019-06-07T20:17:46.693Z,11.38
2019-06-07T20:20:15.946Z,12.95
2019-06-07T20:22:44.356Z,15.18
2019-06-07T20:25:13.265Z,15.25
2019-06-07T20:27:41.749Z,13.88
2019-06-07T20:30:11.789Z,21.80
2019-06-07T20:32:40.121Z,12.33
2019-06-07T20:35:08.921Z,14.40
2019-06-07T20:37:37.201Z,16.77
2019-06-07T20:40:19.527Z,12.53
2019-06-07T20:42:35.548Z,14.13
2019-06-07T20:45:04.286Z,19.27
2019-06-07T20:47:32.381Z,19.25
2019-06-07T20:50:00.589Z,19.73
2019-06-07T20:52:28.816Z,16.42
2019-06-07T20:54:58.346Z,13.55
2019-06-07T20:57:26.998Z,13.75
2019-06-07T20:59:55.266Z,15.15
2019-06-07T21:02:23.644Z,11.05
2019-06-07T21:04:52.009Z,18.32
2019-06-07T21:07:20.296Z,12.15
2019-06-07T21:09:48.540Z,17.15
2019-06-07T21:12:16.658Z,18.48
2019-06-07T21:14:44.976Z,13.60
2019-06-07T21:17:13.077Z,13.68
2019-06-07T21:19:41.296Z,12.25
2019-06-07T21:22:10.846Z,11.57
2019-06-07T21:24:39.746Z,7.75
2019-06-07T21:27:09.368Z,9.68
2019-06-07T21:29:44.190Z,7.00
2019-06-07T21:32:12.875Z,8.65
2019-06-07T21:34:40.985Z,16.75
2019-06-07T21:37:09.974Z,7.40
2019-06-07T21:39:38.306Z,9.70
2019-06-07T21:42:06.530Z,11.08
2019-06-07T21:44:34.737Z,10.32
2019-06-07T21:47:04.158Z,16.67
2019-06-07T21:49:32.866Z,15.83
2019-06-07T21:52:02.388Z,17.65
2019-06-07T21:54:30.683Z,16.17
2019-06-07T21:56:58.970Z,16.17
2019-06-07T21:59:27.109Z,15.95
2019-06-07T22:01:55.450Z,11.50
2019-06-07T22:04:23.566Z,8.33
2019-06-07T22:06:51.725Z,13.30
2019-06-07T22:09:19.974Z,9.83
2019-06-07T22:11:48.099Z,9.70
2019-06-07T22:14:16.198Z,10.23
2019-06-07T22:16:44.433Z,8.18
2019-06-07T22:19:12.789Z,10.10
2019-06-07T22:21:40.995Z,6.47
2019-06-07T22:24:09.386Z,9.53
2019-06-07T22:26:38.866Z,8.25
2019-06-07T22:29:08.165Z,10.72
2019-06-07T22:31:36.768Z,10.43
2019-06-07T22:34:04.878Z,8.85
2019-06-07T22:36:33.128Z,9.10
2019-06-07T22:39:01.324Z,7.22
2019-06-07T22:41:31.352Z,12.18
2019-06-07T22:43:59.567Z,7.22
2019-06-07T22:46:36.806Z,7.12
2019-06-07T22:48:57.962Z,6.72
2019-06-07T22:51:26.250Z,9.90
2019-06-07T22:53:54.551Z,8.08
2019-06-07T22:56:37.221Z,7.10
2019-06-07T22:59:05.497Z,8.35
2019-06-07T23:01:33.893Z,13.48
2019-06-07T23:04:02.186Z,7.70
2019-06-07T23:06:30.506Z,12.75
2019-06-07T23:08:58.785Z,13.75
2019-06-07T23:11:28.045Z,10.68
2019-06-07T23:13:56.533Z,6.83
2019-06-07T23:16:24.866Z,11.78
2019-06-07T23:18:53.121Z,12.68
2019-06-07T23:21:21.421Z,11.40
2019-06-07T23:23:49.546Z,15.85
2019-06-07T23:26:18.334Z,16.10
2019-06-07T23:28:47.641Z,11.25
2019-06-07T23:31:16.578Z,12.73
2019-06-07T23:33:45.176Z,10.47
2019-06-07T23:36:13.377Z,6.45
2019-06-07T23:38:41.485Z,8.35
2019-06-07T23:41:11.362Z,8.70
2019-06-07T23:43:39.666Z,11.28
2019-06-07T23:46:07.897Z,6.58
2019-06-07T23:48:36.057Z,6.83
2019-06-07T23:51:04.490Z,12.25
2019-06-07T23:53:32.777Z,11.18
2019-06-07T23:56:01.044Z,8.35
2019-06-07T23:58:30.369Z,7.03
